sensor_id;sensor_type;location;lat;lon;timestamp;P1;durP1;ratioP1;P2;durP2;ratioP2
33830;SDS011;20137;48.834;8.732;2023-11-19T00:00:26;0.68;;;0.47;;
33830;SDS011;20137;48.834;8.732;2023-11-19T00:02:52;1.00;;;0.50;;
33830;SDS011;20137;48.834;8.732;2023-11-19T00:05:18;1.48;;;0.80;;
33830;SDS011;20137;48.834;8.732;2023-11-19T00:07:43;2.28;;;0.75;;
33830;SDS011;20137;48.834;8.732;2023-11-19T00:10:10;1.05;;;0.70;;
33830;SDS011;20137;48.834;8.732;2023-11-19T00:12:37;0.32;;;0.28;;
33830;SDS011;20137;48.834;8.732;2023-11-19T00:15:07;0.55;;;0.30;;
33830;SDS011;20137;48.834;8.732;2023-11-19T00:17:42;0.65;;;0.32;;
33830;SDS011;20137;48.834;8.732;2023-11-19T00:20:12;1.52;;;0.40;;
33830;SDS011;20137;48.834;8.732;2023-11-19T00:22:39;0.60;;;0.40;;
33830;SDS011;20137;48.834;8.732;2023-11-19T00:25:05;0.82;;;0.22;;
33830;SDS011;20137;48.834;8.732;2023-11-19T00:27:31;0.55;;;0.30;;
33830;SDS011;20137;48.834;8.732;2023-11-19T00:29:57;0.57;;;0.40;;
33830;SDS011;20137;48.834;8.732;2023-11-19T00:32:23;0.40;;;0.30;;
33830;SDS011;20137;48.834;8.732;2023-11-19T00:34:49;2.15;;;0.30;;
33830;SDS011;20137;48.834;8.732;2023-11-19T00:37:15;0.32;;;0.20;;
33830;SDS011;20137;48.834;8.732;2023-11-19T00:39:41;0.52;;;0.30;;
33830;SDS011;20137;48.834;8.732;2023-11-19T00:42:07;0.50;;;0.30;;
33830;SDS011;20137;48.834;8.732;2023-11-19T00:44:32;0.98;;;0.30;;
33830;SDS011;20137;48.834;8.732;2023-11-19T00:46:58;1.25;;;0.50;;
33830;SDS011;20137;48.834;8.732;2023-11-19T00:49:27;1.85;;;0.20;;
33830;SDS011;20137;48.834;8.732;2023-11-19T00:51:53;0.30;;;0.15;;
33830;SDS011;20137;48.834;8.732;2023-11-19T00:54:18;0.57;;;0.22;;
33830;SDS011;20137;48.834;8.732;2023-11-19T00:56:44;0.20;;;0.20;;
33830;SDS011;20137;48.834;8.732;2023-11-19T00:59:10;0.20;;;0.20;;
33830;SDS011;20137;48.834;8.732;2023-11-19T01:01:36;0.20;;;0.20;;
33830;SDS011;20137;48.834;8.732;2023-11-19T01:04:05;0.57;;;0.28;;
33830;SDS011;20137;48.834;8.732;2023-11-19T01:06:31;0.20;;;0.20;;
33830;SDS011;20137;48.834;8.732;2023-11-19T01:08:57;2.47;;;0.20;;
33830;SDS011;20137;48.834;8.732;2023-11-19T01:11:23;0.25;;;0.25;;
33830;SDS011;20137;48.834;8.732;2023-11-19T01:13:50;0.40;;;0.30;;
33830;SDS011;20137;48.834;8.732;2023-11-19T01:16:16;1.70;;;0.30;;
33830;SDS011;20137;48.834;8.732;2023-11-19T01:18:43;2.15;;;0.93;;
33830;SDS011;20137;48.834;8.732;2023-11-19T01:21:09;2.10;;;0.50;;
33830;SDS011;20137;48.834;8.732;2023-11-19T01:23:35;0.47;;;0.30;;
33830;SDS011;20137;48.834;8.732;2023-11-19T01:26:02;0.80;;;0.50;;
33830;SDS011;20137;48.834;8.732;2023-11-19T01:28:28;0.65;;;0.30;;
33830;SDS011;20137;48.834;8.732;2023-11-19T01:30:53;0.93;;;0.30;;
33830;SDS011;20137;48.834;8.732;2023-11-19T01:33:19;0.22;;;0.20;;
33830;SDS011;20137;48.834;8.732;2023-11-19T01:35:46;0.43;;;0.30;;
33830;SDS011;20137;48.834;8.732;2023-11-19T01:38:12;1.00;;;0.20;;
33830;SDS011;20137;48.834;8.732;2023-11-19T01:40:37;0.30;;;0.22;;
33830;SDS011;20137;48.834;8.732;2023-11-19T01:43:03;0.73;;;0.30;;
33830;SDS011;20137;48.834;8.732;2023-11-19T01:45:29;0.55;;;0.30;;
33830;SDS011;20137;48.834;8.732;2023-11-19T01:48:00;1.95;;;0.20;;
33830;SDS011;20137;48.834;8.732;2023-11-19T01:50:31;0.10;;;0.10;;
33830;SDS011;20137;48.834;8.732;2023-11-19T01:52:58;0.13;;;0.13;;
33830;SDS011;20137;48.834;8.732;2023-11-19T01:55:24;0.95;;;0.30;;
33830;SDS011;20137;48.834;8.732;2023-11-19T01:57:53;0.35;;;0.20;;
33830;SDS011;20137;48.834;8.732;2023-11-19T02:00:23;1.20;;;0.55;;
33830;SDS011;20137;48.834;8.732;2023-11-19T02:02:49;0.57;;;0.22;;
33830;SDS011;20137;48.834;8.732;2023-11-19T02:05:17;0.40;;;0.17;;
33830;SDS011;20137;48.834;8.732;2023-11-19T02:07:43;0.52;;;0.10;;
33830;SDS011;20137;48.834;8.732;2023-11-19T02:10:09;0.93;;;0.20;;
33830;SDS011;20137;48.834;8.732;2023-11-19T02:12:42;0.40;;;0.10;;
33830;SDS011;20137;48.834;8.732;2023-11-19T02:15:09;0.20;;;0.20;;
33830;SDS011;20137;48.834;8.732;2023-11-19T02:17:35;0.10;;;0.10;;
33830;SDS011;20137;48.834;8.732;2023-11-19T02:20:02;0.20;;;0.20;;
33830;SDS011;20137;48.834;8.732;2023-11-19T02:22:31;1.00;;;0.20;;
33830;SDS011;20137;48.834;8.732;2023-11-19T02:24:59;6.35;;;0.63;;
33830;SDS011;20137;48.834;8.732;2023-11-19T02:27:48;1.70;;;0.15;;
33830;SDS011;20137;48.834;8.732;2023-11-19T02:30:22;0.50;;;0.47;;
33830;SDS011;20137;48.834;8.732;2023-11-19T02:32:55;0.20;;;0.10;;
33830;SDS011;20137;48.834;8.732;2023-11-19T02:35:26;0.38;;;0.30;;
33830;SDS011;20137;48.834;8.732;2023-11-19T02:37:53;0.10;;;0.10;;
33830;SDS011;20137;48.834;8.732;2023-11-19T02:40:21;0.10;;;0.10;;
33830;SDS011;20137;48.834;8.732;2023-11-19T02:42:49;0.10;;;0.10;;
33830;SDS011;20137;48.834;8.732;2023-11-19T02:45:15;0.30;;;0.13;;
33830;SDS011;20137;48.834;8.732;2023-11-19T02:47:41;0.20;;;0.10;;
33830;SDS011;20137;48.834;8.732;2023-11-19T02:50:13;0.63;;;0.10;;
33830;SDS011;20137;48.834;8.732;2023-11-19T02:52:43;0.10;;;0.10;;
33830;SDS011;20137;48.834;8.732;2023-11-19T02:55:10;0.10;;;0.10;;
33830;SDS011;20137;48.834;8.732;2023-11-19T02:57:40;0.10;;;0.10;;
33830;SDS011;20137;48.834;8.732;2023-11-19T03:00:17;0.28;;;0.15;;
33830;SDS011;20137;48.834;8.732;2023-11-19T03:02:53;0.57;;;0.20;;
33830;SDS011;20137;48.834;8.732;2023-11-19T03:05:25;0.40;;;0.20;;
33830;SDS011;20137;48.834;8.732;2023-11-19T03:07:55;1.30;;;0.20;;
33830;SDS011;20137;48.834;8.732;2023-11-19T03:10:20;0.40;;;0.20;;
33830;SDS011;20137;48.834;8.732;2023-11-19T03:12:46;0.45;;;0.20;;
33830;SDS011;20137;48.834;8.732;2023-11-19T03:15:12;0.10;;;0.10;;
33830;SDS011;20137;48.834;8.732;2023-11-19T03:17:41;0.20;;;0.20;;
33830;SDS011;20137;48.834;8.732;2023-11-19T03:20:08;0.20;;;0.10;;
33830;SDS011;20137;48.834;8.732;2023-11-19T03:22:38;1.02;;;0.10;;
33830;SDS011;20137;48.834;8.732;2023-11-19T03:25:06;0.20;;;0.20;;
33830;SDS011;20137;48.834;8.732;2023-11-19T03:27:33;2.70;;;0.20;;
33830;SDS011;20137;48.834;8.732;2023-11-19T03:30:04;0.10;;;0.10;;
33830;SDS011;20137;48.834;8.732;2023-11-19T03:32:34;0.25;;;0.10;;
33830;SDS011;20137;48.834;8.732;2023-11-19T03:35:00;0.30;;;0.10;;
33830;SDS011;20137;48.834;8.732;2023-11-19T03:37:27;0.43;;;0.30;;
33830;SDS011;20137;48.834;8.732;2023-11-19T03:39:58;1.65;;;0.10;;
33830;SDS011;20137;48.834;8.732;2023-11-19T03:42:28;0.20;;;0.20;;
33830;SDS011;20137;48.834;8.732;2023-11-19T03:44:55;0.30;;;0.10;;
33830;SDS011;20137;48.834;8.732;2023-11-19T03:47:21;0.10;;;0.10;;
33830;SDS011;20137;48.834;8.732;2023-11-19T03:49:48;3.38;;;0.20;;
33830;SDS011;20137;48.834;8.732;2023-11-19T03:52:14;0.20;;;0.20;;
33830;SDS011;20137;48.834;8.732;2023-11-19T03:54:40;0.65;;;0.20;;
33830;SDS011;20137;48.834;8.732;2023-11-19T03:57:06;1.60;;;0.20;;
33830;SDS011;20137;48.834;8.732;2023-11-19T03:59:31;0.82;;;0.10;;
33830;SDS011;20137;48.834;8.732;2023-11-19T04:01:58;0.15;;;0.10;;
33830;SDS011;20137;48.834;8.732;2023-11-19T04:04:25;1.08;;;0.20;;
33830;SDS011;20137;48.834;8.732;2023-11-19T04:06:52;0.55;;;0.22;;
33830;SDS011;20137;48.834;8.732;2023-11-19T04:09:18;1.55;;;0.20;;
33830;SDS011;20137;48.834;8.732;2023-11-19T04:11:44;0.10;;;0.10;;
33830;SDS011;20137;48.834;8.732;2023-11-19T04:14:11;0.95;;;0.10;;
33830;SDS011;20137;48.834;8.732;2023-11-19T04:16:42;1.08;;;0.30;;
33830;SDS011;20137;48.834;8.732;2023-11-19T04:19:09;4.15;;;0.28;;
33830;SDS011;20137;48.834;8.732;2023-11-19T04:21:35;0.20;;;0.20;;
33830;SDS011;20137;48.834;8.732;2023-11-19T04:24:01;0.30;;;0.30;;
33830;SDS011;20137;48.834;8.732;2023-11-19T04:26:27;0.40;;;0.20;;
33830;SDS011;20137;48.834;8.732;2023-11-19T04:28:52;0.10;;;0.10;;
33830;SDS011;20137;48.834;8.732;2023-11-19T04:31:18;0.47;;;0.32;;
33830;SDS011;20137;48.834;8.732;2023-11-19T04:33:44;0.10;;;0.10;;
33830;SDS011;20137;48.834;8.732;2023-11-19T04:36:10;0.20;;;0.20;;
33830;SDS011;20137;48.834;8.732;2023-11-19T04:38:36;0.45;;;0.20;;
33830;SDS011;20137;48.834;8.732;2023-11-19T04:41:03;0.22;;;0.20;;
33830;SDS011;20137;48.834;8.732;2023-11-19T04:43:30;0.20;;;0.20;;
33830;SDS011;20137;48.834;8.732;2023-11-19T04:45:56;1.35;;;0.30;;
33830;SDS011;20137;48.834;8.732;2023-11-19T04:48:22;0.40;;;0.30;;
33830;SDS011;20137;48.834;8.732;2023-11-19T04:50:48;0.68;;;0.40;;
33830;SDS011;20137;48.834;8.732;2023-11-19T04:53:15;0.65;;;0.20;;
33830;SDS011;20137;48.834;8.732;2023-11-19T04:55:41;0.40;;;0.30;;
33830;SDS011;20137;48.834;8.732;2023-11-19T04:58:06;1.73;;;0.30;;
33830;SDS011;20137;48.834;8.732;2023-11-19T05:00:32;1.30;;;0.30;;
33830;SDS011;20137;48.834;8.732;2023-11-19T05:02:58;0.30;;;0.30;;
33830;SDS011;20137;48.834;8.732;2023-11-19T05:05:23;0.20;;;0.20;;
33830;SDS011;20137;48.834;8.732;2023-11-19T05:07:49;0.30;;;0.30;;
33830;SDS011;20137;48.834;8.732;2023-11-19T05:10:17;1.02;;;0.30;;
33830;SDS011;20137;48.834;8.732;2023-11-19T05:12:42;1.48;;;0.30;;
33830;SDS011;20137;48.834;8.732;2023-11-19T05:15:08;0.50;;;0.40;;
33830;SDS011;20137;48.834;8.732;2023-11-19T05:17:34;0.95;;;0.40;;
33830;SDS011;20137;48.834;8.732;2023-11-19T05:20:02;2.35;;;0.50;;
33830;SDS011;20137;48.834;8.732;2023-11-19T05:22:28;0.30;;;0.30;;
33830;SDS011;20137;48.834;8.732;2023-11-19T05:24:53;1.10;;;0.50;;
33830;SDS011;20137;48.834;8.732;2023-11-19T05:27:20;1.63;;;0.65;;
33830;SDS011;20137;48.834;8.732;2023-11-19T05:29:48;1.83;;;0.32;;
33830;SDS011;20137;48.834;8.732;2023-11-19T05:32:14;2.10;;;0.40;;
33830;SDS011;20137;48.834;8.732;2023-11-19T05:34:40;0.80;;;0.40;;
33830;SDS011;20137;48.834;8.732;2023-11-19T05:37:05;2.63;;;0.50;;
33830;SDS011;20137;48.834;8.732;2023-11-19T05:39:31;3.63;;;0.88;;
33830;SDS011;20137;48.834;8.732;2023-11-19T05:41:57;2.85;;;0.57;;
33830;SDS011;20137;48.834;8.732;2023-11-19T05:44:22;1.02;;;0.50;;
33830;SDS011;20137;48.834;8.732;2023-11-19T05:46:48;1.20;;;0.50;;
33830;SDS011;20137;48.834;8.732;2023-11-19T05:49:14;0.82;;;0.43;;
33830;SDS011;20137;48.834;8.732;2023-11-19T05:51:40;0.70;;;0.40;;
33830;SDS011;20137;48.834;8.732;2023-11-19T05:54:06;4.93;;;0.50;;
33830;SDS011;20137;48.834;8.732;2023-11-19T05:56:34;2.53;;;0.50;;
33830;SDS011;20137;48.834;8.732;2023-11-19T05:59:00;1.08;;;0.40;;
33830;SDS011;20137;48.834;8.732;2023-11-19T06:01:28;0.65;;;0.40;;
33830;SDS011;20137;48.834;8.732;2023-11-19T06:03:56;0.90;;;0.40;;
33830;SDS011;20137;48.834;8.732;2023-11-19T06:06:22;1.25;;;0.40;;
33830;SDS011;20137;48.834;8.732;2023-11-19T06:08:48;0.47;;;0.20;;
33830;SDS011;20137;48.834;8.732;2023-11-19T06:11:15;0.52;;;0.32;;
33830;SDS011;20137;48.834;8.732;2023-11-19T06:13:43;1.20;;;0.40;;
33830;SDS011;20137;48.834;8.732;2023-11-19T06:16:09;0.68;;;0.30;;
33830;SDS011;20137;48.834;8.732;2023-11-19T06:18:36;1.35;;;0.77;;
33830;SDS011;20137;48.834;8.732;2023-11-19T06:21:02;0.35;;;0.20;;
33830;SDS011;20137;48.834;8.732;2023-11-19T06:23:27;0.57;;;0.20;;
33830;SDS011;20137;48.834;8.732;2023-11-19T06:25:53;2.40;;;0.20;;
33830;SDS011;20137;48.834;8.732;2023-11-19T06:28:19;1.55;;;0.30;;
33830;SDS011;20137;48.834;8.732;2023-11-19T06:30:44;0.20;;;0.20;;
33830;SDS011;20137;48.834;8.732;2023-11-19T06:33:13;0.88;;;0.20;;
33830;SDS011;20137;48.834;8.732;2023-11-19T06:35:39;0.55;;;0.25;;
33830;SDS011;20137;48.834;8.732;2023-11-19T06:38:05;0.35;;;0.32;;
33830;SDS011;20137;48.834;8.732;2023-11-19T06:40:34;0.30;;;0.30;;
33830;SDS011;20137;48.834;8.732;2023-11-19T06:43:00;1.38;;;0.40;;
33830;SDS011;20137;48.834;8.732;2023-11-19T06:45:26;2.95;;;0.40;;
33830;SDS011;20137;48.834;8.732;2023-11-19T06:47:51;4.95;;;0.57;;
33830;SDS011;20137;48.834;8.732;2023-11-19T06:50:17;2.05;;;0.30;;
33830;SDS011;20137;48.834;8.732;2023-11-19T06:52:44;1.65;;;0.50;;
33830;SDS011;20137;48.834;8.732;2023-11-19T06:55:10;2.17;;;0.60;;
33830;SDS011;20137;48.834;8.732;2023-11-19T06:57:36;1.90;;;0.40;;
33830;SDS011;20137;48.834;8.732;2023-11-19T07:00:02;1.90;;;0.50;;
33830;SDS011;20137;48.834;8.732;2023-11-19T07:02:30;1.02;;;0.30;;
33830;SDS011;20137;48.834;8.732;2023-11-19T07:04:56;2.97;;;0.63;;
33830;SDS011;20137;48.834;8.732;2023-11-19T07:07:22;2.00;;;0.50;;
33830;SDS011;20137;48.834;8.732;2023-11-19T07:09:47;1.45;;;0.45;;
33830;SDS011;20137;48.834;8.732;2023-11-19T07:12:13;3.15;;;0.60;;
33830;SDS011;20137;48.834;8.732;2023-11-19T07:14:39;3.47;;;0.50;;
33830;SDS011;20137;48.834;8.732;2023-11-19T07:17:06;0.70;;;0.38;;
33830;SDS011;20137;48.834;8.732;2023-11-19T07:19:33;2.28;;;0.70;;
33830;SDS011;20137;48.834;8.732;2023-11-19T07:22:01;1.77;;;0.60;;
33830;SDS011;20137;48.834;8.732;2023-11-19T07:24:27;3.95;;;0.60;;
33830;SDS011;20137;48.834;8.732;2023-11-19T07:26:56;1.70;;;0.52;;
33830;SDS011;20137;48.834;8.732;2023-11-19T07:29:22;1.85;;;0.60;;
33830;SDS011;20137;48.834;8.732;2023-11-19T07:31:50;0.68;;;0.43;;
33830;SDS011;20137;48.834;8.732;2023-11-19T07:34:16;2.80;;;0.43;;
33830;SDS011;20137;48.834;8.732;2023-11-19T07:36:42;2.22;;;0.55;;
33830;SDS011;20137;48.834;8.732;2023-11-19T07:39:08;3.22;;;0.60;;
33830;SDS011;20137;48.834;8.732;2023-11-19T07:41:33;1.95;;;0.60;;
33830;SDS011;20137;48.834;8.732;2023-11-19T07:43:59;2.85;;;0.60;;
33830;SDS011;20137;48.834;8.732;2023-11-19T07:46:25;1.80;;;0.63;;
33830;SDS011;20137;48.834;8.732;2023-11-19T07:48:52;0.68;;;0.40;;
33830;SDS011;20137;48.834;8.732;2023-11-19T07:51:17;1.70;;;0.45;;
33830;SDS011;20137;48.834;8.732;2023-11-19T07:53:43;3.10;;;0.77;;
33830;SDS011;20137;48.834;8.732;2023-11-19T07:56:09;2.78;;;0.45;;
33830;SDS011;20137;48.834;8.732;2023-11-19T07:58:35;0.77;;;0.35;;
33830;SDS011;20137;48.834;8.732;2023-11-19T08:01:01;2.60;;;0.57;;
33830;SDS011;20137;48.834;8.732;2023-11-19T08:03:28;4.13;;;0.40;;
33830;SDS011;20137;48.834;8.732;2023-11-19T08:05:57;3.50;;;0.50;;
33830;SDS011;20137;48.834;8.732;2023-11-19T08:08:23;3.50;;;0.40;;
33830;SDS011;20137;48.834;8.732;2023-11-19T08:10:49;1.00;;;0.43;;
33830;SDS011;20137;48.834;8.732;2023-11-19T08:13:16;6.05;;;4.05;;
33830;SDS011;20137;48.834;8.732;2023-11-19T08:15:45;7.95;;;3.50;;
33830;SDS011;20137;48.834;8.732;2023-11-19T08:18:11;2.78;;;1.00;;
33830;SDS011;20137;48.834;8.732;2023-11-19T08:20:37;3.28;;;0.80;;
33830;SDS011;20137;48.834;8.732;2023-11-19T08:23:02;3.47;;;0.60;;
33830;SDS011;20137;48.834;8.732;2023-11-19T08:25:31;1.80;;;1.08;;
33830;SDS011;20137;48.834;8.732;2023-11-19T08:27:58;3.13;;;1.00;;
33830;SDS011;20137;48.834;8.732;2023-11-19T08:30:25;1.80;;;1.02;;
33830;SDS011;20137;48.834;8.732;2023-11-19T08:32:50;2.00;;;0.60;;
33830;SDS011;20137;48.834;8.732;2023-11-19T08:35:16;3.22;;;0.80;;
33830;SDS011;20137;48.834;8.732;2023-11-19T08:37:42;1.48;;;0.98;;
33830;SDS011;20137;48.834;8.732;2023-11-19T08:40:08;1.05;;;0.40;;
33830;SDS011;20137;48.834;8.732;2023-11-19T08:42:34;0.65;;;0.50;;
33830;SDS011;20137;48.834;8.732;2023-11-19T08:45:00;1.45;;;0.45;;
33830;SDS011;20137;48.834;8.732;2023-11-19T08:47:25;1.08;;;0.60;;
33830;SDS011;20137;48.834;8.732;2023-11-19T08:49:51;4.13;;;0.68;;
33830;SDS011;20137;48.834;8.732;2023-11-19T08:52:18;2.63;;;0.70;;
33830;SDS011;20137;48.834;8.732;2023-11-19T08:54:43;2.78;;;0.60;;
33830;SDS011;20137;48.834;8.732;2023-11-19T08:57:09;1.58;;;0.88;;
33830;SDS011;20137;48.834;8.732;2023-11-19T08:59:35;3.17;;;0.70;;
33830;SDS011;20137;48.834;8.732;2023-11-19T09:02:02;1.13;;;0.60;;
33830;SDS011;20137;48.834;8.732;2023-11-19T09:04:29;1.33;;;0.50;;
33830;SDS011;20137;48.834;8.732;2023-11-19T09:06:54;2.67;;;0.60;;
33830;SDS011;20137;48.834;8.732;2023-11-19T09:09:22;2.22;;;0.40;;
33830;SDS011;20137;48.834;8.732;2023-11-19T09:11:48;2.95;;;0.52;;
33830;SDS011;20137;48.834;8.732;2023-11-19T09:14:17;2.30;;;0.80;;
33830;SDS011;20137;48.834;8.732;2023-11-19T09:16:43;1.88;;;0.90;;
33830;SDS011;20137;48.834;8.732;2023-11-19T09:19:09;2.67;;;0.60;;
33830;SDS011;20137;48.834;8.732;2023-11-19T09:21:34;2.15;;;0.82;;
33830;SDS011;20137;48.834;8.732;2023-11-19T09:24:03;1.88;;;0.52;;
33830;SDS011;20137;48.834;8.732;2023-11-19T09:26:29;3.90;;;0.50;;
33830;SDS011;20137;48.834;8.732;2023-11-19T09:28:55;0.75;;;0.50;;
33830;SDS011;20137;48.834;8.732;2023-11-19T09:31:21;1.80;;;0.57;;
33830;SDS011;20137;48.834;8.732;2023-11-19T09:33:47;3.83;;;0.63;;
33830;SDS011;20137;48.834;8.732;2023-11-19T09:36:12;1.58;;;0.47;;
33830;SDS011;20137;48.834;8.732;2023-11-19T09:38:42;3.85;;;0.80;;
33830;SDS011;20137;48.834;8.732;2023-11-19T09:41:09;1.35;;;0.43;;
33830;SDS011;20137;48.834;8.732;2023-11-19T09:43:37;1.27;;;0.35;;
33830;SDS011;20137;48.834;8.732;2023-11-19T09:46:09;2.65;;;0.43;;
33830;SDS011;20137;48.834;8.732;2023-11-19T09:48:38;2.15;;;0.40;;
33830;SDS011;20137;48.834;8.732;2023-11-19T09:51:05;1.52;;;0.40;;
33830;SDS011;20137;48.834;8.732;2023-11-19T09:53:32;2.85;;;0.68;;
33830;SDS011;20137;48.834;8.732;2023-11-19T09:56:00;3.50;;;0.75;;
33830;SDS011;20137;48.834;8.732;2023-11-19T09:58:28;1.42;;;0.70;;
33830;SDS011;20137;48.834;8.732;2023-11-19T10:00:55;3.85;;;1.02;;
33830;SDS011;20137;48.834;8.732;2023-11-19T10:03:20;1.95;;;0.40;;
33830;SDS011;20137;48.834;8.732;2023-11-19T10:05:48;1.95;;;0.55;;
33830;SDS011;20137;48.834;8.732;2023-11-19T10:08:14;1.85;;;0.50;;
33830;SDS011;20137;48.834;8.732;2023-11-19T10:10:39;3.47;;;0.70;;
33830;SDS011;20137;48.834;8.732;2023-11-19T10:13:05;2.42;;;0.63;;
33830;SDS011;20137;48.834;8.732;2023-11-19T10:15:35;3.08;;;0.82;;
33830;SDS011;20137;48.834;8.732;2023-11-19T10:18:01;1.60;;;0.60;;
33830;SDS011;20137;48.834;8.732;2023-11-19T10:20:29;6.10;;;0.93;;
33830;SDS011;20137;48.834;8.732;2023-11-19T10:23:00;0.98;;;0.40;;
33830;SDS011;20137;48.834;8.732;2023-11-19T10:25:27;1.58;;;0.50;;
33830;SDS011;20137;48.834;8.732;2023-11-19T10:27:54;1.48;;;0.50;;
33830;SDS011;20137;48.834;8.732;2023-11-19T10:30:21;3.15;;;0.55;;
33830;SDS011;20137;48.834;8.732;2023-11-19T10:33:07;0.65;;;0.50;;
33830;SDS011;20137;48.834;8.732;2023-11-19T10:35:34;1.52;;;0.50;;
33830;SDS011;20137;48.834;8.732;2023-11-19T10:38:15;2.15;;;0.65;;
33830;SDS011;20137;48.834;8.732;2023-11-19T10:40:41;2.58;;;0.52;;
33830;SDS011;20137;48.834;8.732;2023-11-19T10:43:07;2.83;;;0.60;;
33830;SDS011;20137;48.834;8.732;2023-11-19T10:45:33;2.10;;;0.40;;
33830;SDS011;20137;48.834;8.732;2023-11-19T10:48:00;3.33;;;0.70;;
33830;SDS011;20137;48.834;8.732;2023-11-19T10:50:27;2.72;;;0.65;;
33830;SDS011;20137;48.834;8.732;2023-11-19T10:52:55;1.25;;;0.60;;
33830;SDS011;20137;48.834;8.732;2023-11-19T10:55:28;2.83;;;0.85;;
33830;SDS011;20137;48.834;8.732;2023-11-19T10:58:02;2.58;;;0.60;;
33830;SDS011;20137;48.834;8.732;2023-11-19T11:00:31;3.22;;;0.60;;
33830;SDS011;20137;48.834;8.732;2023-11-19T11:03:19;1.02;;;0.40;;
33830;SDS011;20137;48.834;8.732;2023-11-19T11:05:50;2.67;;;0.60;;
33830;SDS011;20137;48.834;8.732;2023-11-19T11:08:18;3.97;;;0.80;;
33830;SDS011;20137;48.834;8.732;2023-11-19T11:10:46;1.95;;;0.52;;
33830;SDS011;20137;48.834;8.732;2023-11-19T11:13:23;1.58;;;0.60;;
33830;SDS011;20137;48.834;8.732;2023-11-19T11:15:50;3.15;;;0.60;;
33830;SDS011;20137;48.834;8.732;2023-11-19T11:18:16;2.05;;;0.77;;
33830;SDS011;20137;48.834;8.732;2023-11-19T11:20:44;2.85;;;0.70;;
33830;SDS011;20137;48.834;8.732;2023-11-19T11:26:11;4.72;;;1.20;;
33830;SDS011;20137;48.834;8.732;2023-11-19T11:37:53;3.15;;;0.73;;
33830;SDS011;20137;48.834;8.732;2023-11-19T11:40:25;4.43;;;0.98;;
33830;SDS011;20137;48.834;8.732;2023-11-19T11:42:51;2.08;;;0.50;;
33830;SDS011;20137;48.834;8.732;2023-11-19T11:45:18;2.33;;;0.70;;
33830;SDS011;20137;48.834;8.732;2023-11-19T11:50:20;2.03;;;1.13;;
33830;SDS011;20137;48.834;8.732;2023-11-19T11:55:33;5.00;;;0.57;;
33830;SDS011;20137;48.834;8.732;2023-11-19T11:58:01;4.88;;;0.73;;
33830;SDS011;20137;48.834;8.732;2023-11-19T12:00:29;1.65;;;0.63;;
33830;SDS011;20137;48.834;8.732;2023-11-19T12:02:56;2.58;;;0.52;;
33830;SDS011;20137;48.834;8.732;2023-11-19T12:05:23;3.15;;;0.80;;
33830;SDS011;20137;48.834;8.732;2023-11-19T12:08:03;3.70;;;0.60;;
33830;SDS011;20137;48.834;8.732;2023-11-19T12:10:32;3.45;;;0.68;;
33830;SDS011;20137;48.834;8.732;2023-11-19T12:13:03;5.18;;;0.85;;
33830;SDS011;20137;48.834;8.732;2023-11-19T12:15:34;1.67;;;0.68;;
33830;SDS011;20137;48.834;8.732;2023-11-19T12:18:23;2.00;;;0.65;;
33830;SDS011;20137;48.834;8.732;2023-11-19T12:20:49;2.20;;;0.80;;
33830;SDS011;20137;48.834;8.732;2023-11-19T12:23:15;2.13;;;0.60;;
33830;SDS011;20137;48.834;8.732;2023-11-19T12:25:41;4.75;;;0.82;;
33830;SDS011;20137;48.834;8.732;2023-11-19T12:28:11;3.50;;;0.73;;
33830;SDS011;20137;48.834;8.732;2023-11-19T12:30:38;1.75;;;0.60;;
33830;SDS011;20137;48.834;8.732;2023-11-19T12:33:07;1.30;;;0.40;;
33830;SDS011;20137;48.834;8.732;2023-11-19T12:35:38;3.78;;;0.88;;
33830;SDS011;20137;48.834;8.732;2023-11-19T12:38:05;1.75;;;0.65;;
33830;SDS011;20137;48.834;8.732;2023-11-19T12:40:31;6.60;;;0.90;;
33830;SDS011;20137;48.834;8.732;2023-11-19T12:42:57;2.80;;;0.65;;
33830;SDS011;20137;48.834;8.732;2023-11-19T12:45:24;2.38;;;0.82;;
33830;SDS011;20137;48.834;8.732;2023-11-19T12:47:49;3.92;;;0.77;;
33830;SDS011;20137;48.834;8.732;2023-11-19T12:50:17;4.70;;;1.05;;
33830;SDS011;20137;48.834;8.732;2023-11-19T12:52:57;3.65;;;1.05;;
33830;SDS011;20137;48.834;8.732;2023-11-19T12:55:24;2.22;;;0.90;;
33830;SDS011;20137;48.834;8.732;2023-11-19T12:57:54;4.38;;;1.73;;
33830;SDS011;20137;48.834;8.732;2023-11-19T13:00:24;6.45;;;1.33;;
33830;SDS011;20137;48.834;8.732;2023-11-19T13:02:54;4.45;;;1.90;;
33830;SDS011;20137;48.834;8.732;2023-11-19T13:05:28;2.10;;;0.80;;
33830;SDS011;20137;48.834;8.732;2023-11-19T13:08:01;5.82;;;1.83;;
33830;SDS011;20137;48.834;8.732;2023-11-19T13:10:29;2.53;;;0.90;;
33830;SDS011;20137;48.834;8.732;2023-11-19T13:13:14;3.47;;;1.20;;
33830;SDS011;20137;48.834;8.732;2023-11-19T13:15:40;3.53;;;0.80;;
33830;SDS011;20137;48.834;8.732;2023-11-19T13:18:05;1.98;;;0.70;;
33830;SDS011;20137;48.834;8.732;2023-11-19T13:20:31;3.17;;;0.88;;
33830;SDS011;20137;48.834;8.732;2023-11-19T13:22:59;2.38;;;0.80;;
33830;SDS011;20137;48.834;8.732;2023-11-19T13:25:26;5.15;;;1.27;;
33830;SDS011;20137;48.834;8.732;2023-11-19T13:27:53;2.92;;;0.80;;
33830;SDS011;20137;48.834;8.732;2023-11-19T13:30:19;1.95;;;1.05;;
33830;SDS011;20137;48.834;8.732;2023-11-19T13:32:47;4.03;;;1.20;;
33830;SDS011;20137;48.834;8.732;2023-11-19T13:35:13;3.42;;;0.63;;
33830;SDS011;20137;48.834;8.732;2023-11-19T13:37:39;3.80;;;0.40;;
33830;SDS011;20137;48.834;8.732;2023-11-19T13:40:08;4.10;;;0.70;;
33830;SDS011;20137;48.834;8.732;2023-11-19T13:42:35;2.50;;;0.60;;
33830;SDS011;20137;48.834;8.732;2023-11-19T13:45:06;1.65;;;0.52;;
33830;SDS011;20137;48.834;8.732;2023-11-19T13:47:42;2.33;;;0.60;;
33830;SDS011;20137;48.834;8.732;2023-11-19T13:50:12;2.38;;;0.63;;
33830;SDS011;20137;48.834;8.732;2023-11-19T13:52:40;1.08;;;0.55;;
33830;SDS011;20137;48.834;8.732;2023-11-19T13:55:07;2.15;;;0.77;;
33830;SDS011;20137;48.834;8.732;2023-11-19T13:57:35;3.28;;;0.82;;
33830;SDS011;20137;48.834;8.732;2023-11-19T14:00:04;2.10;;;0.73;;
33830;SDS011;20137;48.834;8.732;2023-11-19T14:02:48;3.42;;;0.73;;
33830;SDS011;20137;48.834;8.732;2023-11-19T14:05:14;1.13;;;0.60;;
33830;SDS011;20137;48.834;8.732;2023-11-19T14:07:44;4.13;;;0.98;;
33830;SDS011;20137;48.834;8.732;2023-11-19T14:10:13;4.57;;;0.93;;
33830;SDS011;20137;48.834;8.732;2023-11-19T14:12:40;2.88;;;0.65;;
33830;SDS011;20137;48.834;8.732;2023-11-19T14:15:06;2.65;;;0.70;;
33830;SDS011;20137;48.834;8.732;2023-11-19T14:17:34;2.25;;;0.75;;
33830;SDS011;20137;48.834;8.732;2023-11-19T14:20:01;3.65;;;0.80;;
33830;SDS011;20137;48.834;8.732;2023-11-19T14:22:40;2.80;;;0.80;;
33830;SDS011;20137;48.834;8.732;2023-11-19T14:25:07;1.98;;;0.60;;
33830;SDS011;20137;48.834;8.732;2023-11-19T14:27:40;2.95;;;0.75;;
33830;SDS011;20137;48.834;8.732;2023-11-19T14:30:07;1.65;;;0.80;;
33830;SDS011;20137;48.834;8.732;2023-11-19T14:32:37;4.32;;;0.88;;
33830;SDS011;20137;48.834;8.732;2023-11-19T14:35:04;6.85;;;3.88;;
33830;SDS011;20137;48.834;8.732;2023-11-19T14:37:31;4.70;;;2.00;;
33830;SDS011;20137;48.834;8.732;2023-11-19T14:39:57;1.50;;;0.80;;
33830;SDS011;20137;48.834;8.732;2023-11-19T14:42:23;5.95;;;0.80;;
33830;SDS011;20137;48.834;8.732;2023-11-19T14:44:53;2.55;;;1.00;;
33830;SDS011;20137;48.834;8.732;2023-11-19T14:47:19;2.55;;;0.88;;
33830;SDS011;20137;48.834;8.732;2023-11-19T14:49:45;2.63;;;0.63;;
33830;SDS011;20137;48.834;8.732;2023-11-19T14:52:11;1.77;;;0.90;;
33830;SDS011;20137;48.834;8.732;2023-11-19T14:54:37;3.65;;;1.20;;
33830;SDS011;20137;48.834;8.732;2023-11-19T14:57:05;4.97;;;1.25;;
33830;SDS011;20137;48.834;8.732;2023-11-19T14:59:33;3.58;;;1.23;;
33830;SDS011;20137;48.834;8.732;2023-11-19T15:01:59;1.60;;;0.75;;
33830;SDS011;20137;48.834;8.732;2023-11-19T15:04:26;1.92;;;0.60;;
33830;SDS011;20137;48.834;8.732;2023-11-19T15:06:52;1.88;;;0.70;;